sensor_id;sensor_type;location;lat;lon;timestamp;P1;durP1;ratioP1;P2;durP2;ratioP2
50161;SDS011;36061;48.116;11.612;2023-04-15T00:02:03;4.03;;;2.10;;
50161;SDS011;36061;48.116;11.612;2023-04-15T00:04:40;3.83;;;2.07;;
50161;SDS011;36061;48.116;11.612;2023-04-15T00:07:07;7.50;;;2.20;;
50161;SDS011;36061;48.116;11.612;2023-04-15T00:09:34;3.70;;;2.03;;
50161;SDS011;36061;48.116;11.612;2023-04-15T00:12:03;4.73;;;2.23;;
50161;SDS011;36061;48.116;11.612;2023-04-15T00:14:32;3.40;;;1.73;;
50161;SDS011;36061;48.116;11.612;2023-04-15T00:17:00;5.00;;;1.67;;
50161;SDS011;36061;48.116;11.612;2023-04-15T00:19:27;2.33;;;1.60;;
50161;SDS011;36061;48.116;11.612;2023-04-15T00:21:55;2.97;;;2.20;;
50161;SDS011;36061;48.116;11.612;2023-04-15T00:24:22;2.37;;;1.90;;
50161;SDS011;36061;48.116;11.612;2023-04-15T00:26:50;5.50;;;2.40;;
50161;SDS011;36061;48.116;11.612;2023-04-15T00:29:18;6.17;;;2.40;;
50161;SDS011;36061;48.116;11.612;2023-04-15T00:31:46;3.53;;;1.87;;
50161;SDS011;36061;48.116;11.612;2023-04-15T00:34:13;2.57;;;1.80;;
50161;SDS011;36061;48.116;11.612;2023-04-15T00:36:41;3.97;;;2.10;;
50161;SDS011;36061;48.116;11.612;2023-04-15T00:39:09;4.13;;;1.90;;
50161;SDS011;36061;48.116;11.612;2023-04-15T00:41:37;4.10;;;2.53;;
50161;SDS011;36061;48.116;11.612;2023-04-15T00:44:04;2.33;;;1.90;;
50161;SDS011;36061;48.116;11.612;2023-04-15T00:46:34;4.33;;;2.30;;
50161;SDS011;36061;48.116;11.612;2023-04-15T00:49:03;3.23;;;2.23;;
50161;SDS011;36061;48.116;11.612;2023-04-15T00:51:32;4.13;;;2.20;;
50161;SDS011;36061;48.116;11.612;2023-04-15T00:54:01;3.43;;;1.90;;
50161;SDS011;36061;48.116;11.612;2023-04-15T00:56:29;4.53;;;2.13;;
50161;SDS011;36061;48.116;11.612;2023-04-15T00:58:56;5.80;;;1.97;;
50161;SDS011;36061;48.116;11.612;2023-04-15T01:01:25;3.77;;;2.37;;
50161;SDS011;36061;48.116;11.612;2023-04-15T01:03:55;3.40;;;1.83;;
50161;SDS011;36061;48.116;11.612;2023-04-15T01:06:23;4.67;;;2.53;;
50161;SDS011;36061;48.116;11.612;2023-04-15T01:08:51;5.83;;;2.30;;
50161;SDS011;36061;48.116;11.612;2023-04-15T01:11:19;4.83;;;2.27;;
50161;SDS011;36061;48.116;11.612;2023-04-15T01:13:48;4.03;;;2.10;;
50161;SDS011;36061;48.116;11.612;2023-04-15T01:16:17;3.87;;;2.00;;
50161;SDS011;36061;48.116;11.612;2023-04-15T01:18:45;2.90;;;1.90;;
50161;SDS011;36061;48.116;11.612;2023-04-15T01:21:14;6.77;;;2.23;;
50161;SDS011;36061;48.116;11.612;2023-04-15T01:23:41;2.30;;;2.10;;
50161;SDS011;36061;48.116;11.612;2023-04-15T01:26:14;2.47;;;1.90;;
50161;SDS011;36061;48.116;11.612;2023-04-15T01:28:44;6.57;;;2.77;;
50161;SDS011;36061;48.116;11.612;2023-04-15T01:31:12;2.50;;;2.00;;
50161;SDS011;36061;48.116;11.612;2023-04-15T01:33:41;4.03;;;1.83;;
50161;SDS011;36061;48.116;11.612;2023-04-15T01:36:27;3.07;;;1.87;;
50161;SDS011;36061;48.116;11.612;2023-04-15T01:38:54;6.10;;;2.20;;
50161;SDS011;36061;48.116;11.612;2023-04-15T01:41:25;3.83;;;2.20;;
50161;SDS011;36061;48.116;11.612;2023-04-15T01:43:54;4.57;;;1.93;;
50161;SDS011;36061;48.116;11.612;2023-04-15T01:46:23;4.03;;;1.90;;
50161;SDS011;36061;48.116;11.612;2023-04-15T01:48:51;3.73;;;2.40;;
50161;SDS011;36061;48.116;11.612;2023-04-15T01:51:19;4.83;;;1.97;;
50161;SDS011;36061;48.116;11.612;2023-04-15T01:53:49;4.53;;;2.57;;
50161;SDS011;36061;48.116;11.612;2023-04-15T01:56:17;5.30;;;2.37;;
50161;SDS011;36061;48.116;11.612;2023-04-15T01:58:47;3.90;;;2.40;;
50161;SDS011;36061;48.116;11.612;2023-04-15T02:01:16;3.97;;;2.17;;
50161;SDS011;36061;48.116;11.612;2023-04-15T02:03:46;5.50;;;2.20;;
50161;SDS011;36061;48.116;11.612;2023-04-15T02:06:15;3.47;;;2.53;;
50161;SDS011;36061;48.116;11.612;2023-04-15T02:08:43;4.93;;;2.00;;
50161;SDS011;36061;48.116;11.612;2023-04-15T02:11:12;5.10;;;2.03;;
50161;SDS011;36061;48.116;11.612;2023-04-15T02:13:41;3.57;;;2.30;;
50161;SDS011;36061;48.116;11.612;2023-04-15T02:16:17;2.50;;;1.97;;
50161;SDS011;36061;48.116;11.612;2023-04-15T02:18:45;3.13;;;2.10;;
50161;SDS011;36061;48.116;11.612;2023-04-15T02:21:14;6.07;;;2.20;;
50161;SDS011;36061;48.116;11.612;2023-04-15T02:23:44;3.63;;;2.27;;
50161;SDS011;36061;48.116;11.612;2023-04-15T02:26:13;5.57;;;2.77;;
50161;SDS011;36061;48.116;11.612;2023-04-15T02:28:42;3.60;;;2.33;;
50161;SDS011;36061;48.116;11.612;2023-04-15T02:31:13;3.43;;;2.30;;
50161;SDS011;36061;48.116;11.612;2023-04-15T02:33:43;4.83;;;2.40;;
50161;SDS011;36061;48.116;11.612;2023-04-15T02:36:12;5.70;;;2.10;;
50161;SDS011;36061;48.116;11.612;2023-04-15T02:38:40;2.93;;;1.80;;
50161;SDS011;36061;48.116;11.612;2023-04-15T02:41:09;3.93;;;2.10;;
50161;SDS011;36061;48.116;11.612;2023-04-15T02:43:38;4.47;;;2.50;;
50161;SDS011;36061;48.116;11.612;2023-04-15T02:46:08;4.47;;;2.13;;
50161;SDS011;36061;48.116;11.612;2023-04-15T02:48:40;2.93;;;2.23;;
50161;SDS011;36061;48.116;11.612;2023-04-15T02:51:17;6.43;;;2.40;;
50161;SDS011;36061;48.116;11.612;2023-04-15T02:53:46;4.90;;;2.40;;
50161;SDS011;36061;48.116;11.612;2023-04-15T02:56:15;4.47;;;2.70;;
50161;SDS011;36061;48.116;11.612;2023-04-15T02:58:45;5.40;;;2.20;;
50161;SDS011;36061;48.116;11.612;2023-04-15T03:01:16;2.80;;;1.97;;
50161;SDS011;36061;48.116;11.612;2023-04-15T03:03:46;2.90;;;2.00;;
50161;SDS011;36061;48.116;11.612;2023-04-15T03:06:14;7.87;;;2.80;;
50161;SDS011;36061;48.116;11.612;2023-04-15T03:08:44;4.83;;;2.30;;
50161;SDS011;36061;48.116;11.612;2023-04-15T03:11:13;3.17;;;2.03;;
50161;SDS011;36061;48.116;11.612;2023-04-15T03:13:42;4.77;;;2.40;;
50161;SDS011;36061;48.116;11.612;2023-04-15T03:16:22;2.93;;;1.90;;
50161;SDS011;36061;48.116;11.612;2023-04-15T03:18:50;3.27;;;2.33;;
50161;SDS011;36061;48.116;11.612;2023-04-15T03:21:22;3.10;;;2.13;;
50161;SDS011;36061;48.116;11.612;2023-04-15T03:23:51;5.60;;;1.90;;
50161;SDS011;36061;48.116;11.612;2023-04-15T03:26:23;2.73;;;1.83;;
50161;SDS011;36061;48.116;11.612;2023-04-15T03:28:54;4.13;;;2.27;;
50161;SDS011;36061;48.116;11.612;2023-04-15T03:31:23;7.43;;;2.07;;
50161;SDS011;36061;48.116;11.612;2023-04-15T03:33:51;2.27;;;2.00;;
50161;SDS011;36061;48.116;11.612;2023-04-15T03:36:20;4.37;;;2.30;;
50161;SDS011;36061;48.116;11.612;2023-04-15T03:38:49;3.77;;;2.47;;
50161;SDS011;36061;48.116;11.612;2023-04-15T03:41:18;2.83;;;2.03;;
50161;SDS011;36061;48.116;11.612;2023-04-15T03:43:47;2.53;;;2.10;;
50161;SDS011;36061;48.116;11.612;2023-04-15T03:46:17;2.87;;;1.87;;
50161;SDS011;36061;48.116;11.612;2023-04-15T03:48:46;5.07;;;2.20;;
50161;SDS011;36061;48.116;11.612;2023-04-15T03:51:14;3.87;;;2.20;;
50161;SDS011;36061;48.116;11.612;2023-04-15T03:53:43;4.60;;;2.07;;
50161;SDS011;36061;48.116;11.612;2023-04-15T03:56:13;3.33;;;1.93;;
50161;SDS011;36061;48.116;11.612;2023-04-15T03:58:41;2.83;;;2.20;;
50161;SDS011;36061;48.116;11.612;2023-04-15T04:01:09;4.10;;;1.80;;
50161;SDS011;36061;48.116;11.612;2023-04-15T04:03:38;2.60;;;1.90;;
50161;SDS011;36061;48.116;11.612;2023-04-15T04:06:06;2.67;;;1.80;;
50161;SDS011;36061;48.116;11.612;2023-04-15T04:08:36;2.43;;;1.87;;
50161;SDS011;36061;48.116;11.612;2023-04-15T04:11:04;4.93;;;2.23;;
50161;SDS011;36061;48.116;11.612;2023-04-15T04:13:34;2.40;;;1.80;;
50161;SDS011;36061;48.116;11.612;2023-04-15T04:16:03;3.80;;;1.97;;
50161;SDS011;36061;48.116;11.612;2023-04-15T04:18:32;5.07;;;2.30;;
50161;SDS011;36061;48.116;11.612;2023-04-15T04:21:01;2.00;;;1.80;;
50161;SDS011;36061;48.116;11.612;2023-04-15T04:23:29;3.93;;;1.93;;
50161;SDS011;36061;48.116;11.612;2023-04-15T04:25:58;6.23;;;2.03;;
50161;SDS011;36061;48.116;11.612;2023-04-15T04:28:26;4.33;;;2.10;;
50161;SDS011;36061;48.116;11.612;2023-04-15T04:30:56;2.43;;;1.60;;
50161;SDS011;36061;48.116;11.612;2023-04-15T04:33:25;3.93;;;2.00;;
50161;SDS011;36061;48.116;11.612;2023-04-15T04:35:53;4.70;;;1.90;;
50161;SDS011;36061;48.116;11.612;2023-04-15T04:38:22;4.13;;;2.00;;
50161;SDS011;36061;48.116;11.612;2023-04-15T04:40:50;3.77;;;1.73;;
50161;SDS011;36061;48.116;11.612;2023-04-15T04:43:19;4.53;;;2.30;;
50161;SDS011;36061;48.116;11.612;2023-04-15T04:45:47;3.33;;;1.67;;
50161;SDS011;36061;48.116;11.612;2023-04-15T04:48:17;2.30;;;1.77;;
50161;SDS011;36061;48.116;11.612;2023-04-15T04:50:46;1.80;;;1.40;;
50161;SDS011;36061;48.116;11.612;2023-04-15T04:53:14;2.87;;;2.10;;
50161;SDS011;36061;48.116;11.612;2023-04-15T04:55:43;3.73;;;1.80;;
50161;SDS011;36061;48.116;11.612;2023-04-15T04:58:12;3.20;;;1.80;;
50161;SDS011;36061;48.116;11.612;2023-04-15T05:00:40;3.63;;;1.73;;
50161;SDS011;36061;48.116;11.612;2023-04-15T05:03:09;3.70;;;1.57;;
50161;SDS011;36061;48.116;11.612;2023-04-15T05:05:39;3.13;;;1.90;;
50161;SDS011;36061;48.116;11.612;2023-04-15T05:08:07;2.53;;;1.90;;
50161;SDS011;36061;48.116;11.612;2023-04-15T05:10:36;5.00;;;1.87;;
50161;SDS011;36061;48.116;11.612;2023-04-15T05:13:04;6.03;;;1.77;;
50161;SDS011;36061;48.116;11.612;2023-04-15T05:15:33;2.67;;;1.50;;
50161;SDS011;36061;48.116;11.612;2023-04-15T05:18:02;2.67;;;1.50;;
50161;SDS011;36061;48.116;11.612;2023-04-15T05:20:31;4.27;;;1.90;;
50161;SDS011;36061;48.116;11.612;2023-04-15T05:23:01;2.00;;;1.53;;
50161;SDS011;36061;48.116;11.612;2023-04-15T05:25:29;4.37;;;1.83;;
50161;SDS011;36061;48.116;11.612;2023-04-15T05:27:58;2.80;;;1.67;;
50161;SDS011;36061;48.116;11.612;2023-04-15T05:30:26;2.33;;;1.57;;
50161;SDS011;36061;48.116;11.612;2023-04-15T05:32:55;2.10;;;1.47;;
50161;SDS011;36061;48.116;11.612;2023-04-15T05:35:23;4.57;;;1.67;;
50161;SDS011;36061;48.116;11.612;2023-04-15T05:37:52;1.73;;;1.43;;
50161;SDS011;36061;48.116;11.612;2023-04-15T05:40:22;3.27;;;1.53;;
50161;SDS011;36061;48.116;11.612;2023-04-15T05:42:51;2.80;;;1.50;;
50161;SDS011;36061;48.116;11.612;2023-04-15T05:45:19;4.73;;;1.40;;
50161;SDS011;36061;48.116;11.612;2023-04-15T05:47:48;2.53;;;1.57;;
50161;SDS011;36061;48.116;11.612;2023-04-15T05:50:19;2.10;;;1.60;;
50161;SDS011;36061;48.116;11.612;2023-04-15T05:52:48;2.93;;;1.37;;
50161;SDS011;36061;48.116;11.612;2023-04-15T05:55:16;3.87;;;1.63;;
50161;SDS011;36061;48.116;11.612;2023-04-15T05:57:46;6.17;;;1.40;;
50161;SDS011;36061;48.116;11.612;2023-04-15T06:00:14;2.77;;;1.20;;
50161;SDS011;36061;48.116;11.612;2023-04-15T06:02:43;2.97;;;1.53;;
50161;SDS011;36061;48.116;11.612;2023-04-15T06:05:11;4.13;;;1.43;;
50161;SDS011;36061;48.116;11.612;2023-04-15T06:07:40;1.97;;;1.27;;
50161;SDS011;36061;48.116;11.612;2023-04-15T06:10:09;2.60;;;1.40;;
50161;SDS011;36061;48.116;11.612;2023-04-15T06:12:38;2.03;;;1.30;;
50161;SDS011;36061;48.116;11.612;2023-04-15T06:15:08;1.67;;;1.30;;
50161;SDS011;36061;48.116;11.612;2023-04-15T06:17:37;4.63;;;1.63;;
50161;SDS011;36061;48.116;11.612;2023-04-15T06:20:06;2.80;;;1.50;;
50161;SDS011;36061;48.116;11.612;2023-04-15T06:22:35;3.10;;;1.37;;
50161;SDS011;36061;48.116;11.612;2023-04-15T06:25:05;1.90;;;1.07;;
50161;SDS011;36061;48.116;11.612;2023-04-15T06:27:34;2.63;;;1.50;;
50161;SDS011;36061;48.116;11.612;2023-04-15T06:30:03;3.30;;;1.77;;
50161;SDS011;36061;48.116;11.612;2023-04-15T06:32:34;2.73;;;1.67;;
50161;SDS011;36061;48.116;11.612;2023-04-15T06:35:03;2.80;;;1.87;;
50161;SDS011;36061;48.116;11.612;2023-04-15T06:37:32;5.97;;;1.60;;
50161;SDS011;36061;48.116;11.612;2023-04-15T06:40:00;4.27;;;1.50;;
50161;SDS011;36061;48.116;11.612;2023-04-15T06:42:30;4.10;;;1.50;;
50161;SDS011;36061;48.116;11.612;2023-04-15T06:44:59;5.83;;;2.00;;
50161;SDS011;36061;48.116;11.612;2023-04-15T06:47:28;1.70;;;1.30;;
50161;SDS011;36061;48.116;11.612;2023-04-15T06:49:58;3.57;;;1.30;;
50161;SDS011;36061;48.116;11.612;2023-04-15T06:52:26;2.60;;;0.90;;
50161;SDS011;36061;48.116;11.612;2023-04-15T06:54:55;3.27;;;1.63;;
50161;SDS011;36061;48.116;11.612;2023-04-15T06:57:25;3.07;;;1.60;;
50161;SDS011;36061;48.116;11.612;2023-04-15T06:59:54;1.43;;;1.33;;
50161;SDS011;36061;48.116;11.612;2023-04-15T07:02:23;4.13;;;1.03;;
50161;SDS011;36061;48.116;11.612;2023-04-15T07:04:51;2.67;;;1.30;;
50161;SDS011;36061;48.116;11.612;2023-04-15T07:07:22;2.80;;;1.17;;
50161;SDS011;36061;48.116;11.612;2023-04-15T07:09:51;2.50;;;1.30;;
50161;SDS011;36061;48.116;11.612;2023-04-15T07:12:20;2.57;;;1.20;;
50161;SDS011;36061;48.116;11.612;2023-04-15T07:14:48;3.83;;;1.40;;
50161;SDS011;36061;48.116;11.612;2023-04-15T07:17:17;5.17;;;1.13;;
50161;SDS011;36061;48.116;11.612;2023-04-15T07:19:45;3.07;;;1.50;;
50161;SDS011;36061;48.116;11.612;2023-04-15T07:22:14;1.47;;;0.90;;
50161;SDS011;36061;48.116;11.612;2023-04-15T07:24:44;1.57;;;1.00;;
50161;SDS011;36061;48.116;11.612;2023-04-15T07:27:12;1.70;;;1.30;;
50161;SDS011;36061;48.116;11.612;2023-04-15T07:29:41;2.30;;;1.27;;
50161;SDS011;36061;48.116;11.612;2023-04-15T07:32:09;2.93;;;1.00;;
50161;SDS011;36061;48.116;11.612;2023-04-15T07:34:38;3.07;;;2.03;;
50161;SDS011;36061;48.116;11.612;2023-04-15T07:37:07;3.50;;;1.30;;
50161;SDS011;36061;48.116;11.612;2023-04-15T07:39:35;2.03;;;1.30;;
50161;SDS011;36061;48.116;11.612;2023-04-15T07:42:05;5.07;;;1.30;;
50161;SDS011;36061;48.116;11.612;2023-04-15T07:44:34;2.70;;;1.03;;
50161;SDS011;36061;48.116;11.612;2023-04-15T07:47:02;2.80;;;1.20;;
50161;SDS011;36061;48.116;11.612;2023-04-15T07:49:31;3.03;;;1.47;;
50161;SDS011;36061;48.116;11.612;2023-04-15T07:51:59;3.43;;;2.53;;
50161;SDS011;36061;48.116;11.612;2023-04-15T07:54:27;2.43;;;1.00;;
50161;SDS011;36061;48.116;11.612;2023-04-15T07:56:56;2.20;;;1.23;;
50161;SDS011;36061;48.116;11.612;2023-04-15T07:59:26;3.20;;;1.30;;
50161;SDS011;36061;48.116;11.612;2023-04-15T08:01:55;2.50;;;1.20;;
50161;SDS011;36061;48.116;11.612;2023-04-15T08:04:24;1.43;;;1.07;;
50161;SDS011;36061;48.116;11.612;2023-04-15T08:06:52;2.43;;;0.93;;
50161;SDS011;36061;48.116;11.612;2023-04-15T08:09:21;2.33;;;1.30;;
50161;SDS011;36061;48.116;11.612;2023-04-15T08:11:49;2.60;;;1.73;;
50161;SDS011;36061;48.116;11.612;2023-04-15T08:14:18;4.90;;;1.40;;
50161;SDS011;36061;48.116;11.612;2023-04-15T08:16:48;2.60;;;1.30;;
50161;SDS011;36061;48.116;11.612;2023-04-15T08:19:17;2.53;;;1.30;;
50161;SDS011;36061;48.116;11.612;2023-04-15T08:21:46;2.37;;;1.30;;
50161;SDS011;36061;48.116;11.612;2023-04-15T08:24:14;2.60;;;1.57;;
50161;SDS011;36061;48.116;11.612;2023-04-15T08:26:43;2.43;;;1.30;;
50161;SDS011;36061;48.116;11.612;2023-04-15T08:29:12;4.57;;;1.73;;
50161;SDS011;36061;48.116;11.612;2023-04-15T08:31:40;6.83;;;1.63;;
50161;SDS011;36061;48.116;11.612;2023-04-15T08:34:11;1.30;;;1.07;;
50161;SDS011;36061;48.116;11.612;2023-04-15T08:36:39;2.13;;;1.37;;
50161;SDS011;36061;48.116;11.612;2023-04-15T08:39:08;3.40;;;1.80;;
50161;SDS011;36061;48.116;11.612;2023-04-15T08:41:38;3.80;;;1.63;;
50161;SDS011;36061;48.116;11.612;2023-04-15T08:44:08;4.17;;;1.53;;
50161;SDS011;36061;48.116;11.612;2023-04-15T08:46:37;2.33;;;1.27;;
50161;SDS011;36061;48.116;11.612;2023-04-15T08:49:06;2.93;;;2.13;;
50161;SDS011;36061;48.116;11.612;2023-04-15T08:51:39;3.63;;;1.63;;
50161;SDS011;36061;48.116;11.612;2023-04-15T08:54:08;2.67;;;1.40;;
50161;SDS011;36061;48.116;11.612;2023-04-15T08:56:37;3.50;;;1.30;;
50161;SDS011;36061;48.116;11.612;2023-04-15T08:59:06;2.70;;;1.60;;
50161;SDS011;36061;48.116;11.612;2023-04-15T09:01:35;1.80;;;1.50;;
50161;SDS011;36061;48.116;11.612;2023-04-15T09:04:05;2.97;;;1.87;;
50161;SDS011;36061;48.116;11.612;2023-04-15T09:06:35;3.63;;;1.27;;
50161;SDS011;36061;48.116;11.612;2023-04-15T09:09:03;4.07;;;1.47;;
50161;SDS011;36061;48.116;11.612;2023-04-15T09:11:32;4.13;;;1.93;;
50161;SDS011;36061;48.116;11.612;2023-04-15T09:14:01;4.83;;;1.70;;
50161;SDS011;36061;48.116;11.612;2023-04-15T09:16:30;2.33;;;1.50;;
50161;SDS011;36061;48.116;11.612;2023-04-15T09:18:58;3.33;;;1.60;;
50161;SDS011;36061;48.116;11.612;2023-04-15T09:21:27;3.30;;;1.50;;
50161;SDS011;36061;48.116;11.612;2023-04-15T09:24:00;3.07;;;1.60;;
50161;SDS011;36061;48.116;11.612;2023-04-15T09:26:30;3.70;;;1.60;;
50161;SDS011;36061;48.116;11.612;2023-04-15T09:29:05;3.50;;;1.37;;
50161;SDS011;36061;48.116;11.612;2023-04-15T09:31:34;2.23;;;1.60;;
50161;SDS011;36061;48.116;11.612;2023-04-15T09:34:04;7.07;;;2.27;;
50161;SDS011;36061;48.116;11.612;2023-04-15T09:36:37;3.37;;;2.10;;
50161;SDS011;36061;48.116;11.612;2023-04-15T09:39:21;4.40;;;1.60;;
50161;SDS011;36061;48.116;11.612;2023-04-15T09:42:05;3.23;;;1.90;;
50161;SDS011;36061;48.116;11.612;2023-04-15T09:44:34;4.67;;;1.87;;
50161;SDS011;36061;48.116;11.612;2023-04-15T09:47:02;2.87;;;1.73;;
50161;SDS011;36061;48.116;11.612;2023-04-15T09:49:31;6.50;;;3.00;;
50161;SDS011;36061;48.116;11.612;2023-04-15T09:51:59;4.03;;;2.33;;
50161;SDS011;36061;48.116;11.612;2023-04-15T09:54:34;2.90;;;2.00;;
50161;SDS011;36061;48.116;11.612;2023-04-15T09:57:04;2.43;;;1.80;;
50161;SDS011;36061;48.116;11.612;2023-04-15T09:59:33;5.17;;;2.67;;
50161;SDS011;36061;48.116;11.612;2023-04-15T10:02:03;4.40;;;2.60;;
50161;SDS011;36061;48.116;11.612;2023-04-15T10:04:34;4.43;;;2.73;;
50161;SDS011;36061;48.116;11.612;2023-04-15T10:07:06;4.53;;;2.33;;
50161;SDS011;36061;48.116;11.612;2023-04-15T10:09:37;2.90;;;2.37;;
50161;SDS011;36061;48.116;11.612;2023-04-15T10:12:07;8.30;;;3.30;;
50161;SDS011;36061;48.116;11.612;2023-04-15T10:14:36;4.77;;;2.23;;
50161;SDS011;36061;48.116;11.612;2023-04-15T10:17:06;4.00;;;2.63;;
50161;SDS011;36061;48.116;11.612;2023-04-15T10:19:37;3.20;;;2.50;;
50161;SDS011;36061;48.116;11.612;2023-04-15T10:22:07;6.73;;;2.90;;
50161;SDS011;36061;48.116;11.612;2023-04-15T10:24:35;5.33;;;3.10;;
50161;SDS011;36061;48.116;11.612;2023-04-15T10:27:07;3.17;;;2.37;;
50161;SDS011;36061;48.116;11.612;2023-04-15T10:29:36;3.00;;;2.33;;
50161;SDS011;36061;48.116;11.612;2023-04-15T10:32:05;3.27;;;2.33;;
50161;SDS011;36061;48.116;11.612;2023-04-15T10:34:34;4.00;;;2.53;;
50161;SDS011;36061;48.116;11.612;2023-04-15T10:37:03;4.10;;;2.70;;
50161;SDS011;36061;48.116;11.612;2023-04-15T10:39:41;4.93;;;2.67;;
50161;SDS011;36061;48.116;11.612;2023-04-15T10:42:11;7.37;;;2.80;;
50161;SDS011;36061;48.116;11.612;2023-04-15T10:44:41;4.40;;;2.70;;
50161;SDS011;36061;48.116;11.612;2023-04-15T10:47:12;5.27;;;2.50;;
50161;SDS011;36061;48.116;11.612;2023-04-15T10:49:45;3.17;;;2.50;;
50161;SDS011;36061;48.116;11.612;2023-04-15T10:52:15;4.90;;;2.60;;
50161;SDS011;36061;48.116;11.612;2023-04-15T10:54:46;3.77;;;2.80;;
50161;SDS011;36061;48.116;11.612;2023-04-15T10:57:16;3.37;;;2.80;;
50161;SDS011;36061;48.116;11.612;2023-04-15T10:59:59;3.90;;;2.70;;
50161;SDS011;36061;48.116;11.612;2023-04-15T11:02:37;5.47;;;2.30;;
50161;SDS011;36061;48.116;11.612;2023-04-15T11:05:10;2.93;;;2.40;;
50161;SDS011;36061;48.116;11.612;2023-04-15T11:07:40;2.83;;;2.53;;
50161;SDS011;36061;48.116;11.612;2023-04-15T11:13:26;3.63;;;2.23;;
50161;SDS011;36061;48.116;11.612;2023-04-15T11:15:57;3.70;;;2.30;;
50161;SDS011;36061;48.116;11.612;2023-04-15T11:18:30;3.37;;;2.60;;
50161;SDS011;36061;48.116;11.612;2023-04-15T11:21:03;2.43;;;2.20;;
50161;SDS011;36061;48.116;11.612;2023-04-15T11:23:34;5.33;;;2.87;;
50161;SDS011;36061;48.116;11.612;2023-04-15T11:26:05;4.07;;;2.60;;
50161;SDS011;36061;48.116;11.612;2023-04-15T11:28:39;4.97;;;2.60;;
50161;SDS011;36061;48.116;11.612;2023-04-15T11:31:08;3.40;;;2.83;;
50161;SDS011;36061;48.116;11.612;2023-04-15T11:33:43;3.83;;;2.63;;
50161;SDS011;36061;48.116;11.612;2023-04-15T11:36:13;3.37;;;2.90;;
50161;SDS011;36061;48.116;11.612;2023-04-15T11:38:42;4.30;;;3.07;;
50161;SDS011;36061;48.116;11.612;2023-04-15T11:41:13;6.03;;;3.20;;
50161;SDS011;36061;48.116;11.612;2023-04-15T11:43:43;3.53;;;2.43;;
50161;SDS011;36061;48.116;11.612;2023-04-15T11:46:12;5.73;;;2.93;;
50161;SDS011;36061;48.116;11.612;2023-04-15T11:48:41;6.20;;;3.37;;
50161;SDS011;36061;48.116;11.612;2023-04-15T11:51:10;5.67;;;3.33;;
50161;SDS011;36061;48.116;11.612;2023-04-15T11:53:38;4.60;;;2.70;;
50161;SDS011;36061;48.116;11.612;2023-04-15T11:56:07;5.43;;;3.53;;
50161;SDS011;36061;48.116;11.612;2023-04-15T11:58:36;4.80;;;2.90;;
50161;SDS011;36061;48.116;11.612;2023-04-15T12:01:05;5.37;;;3.10;;
50161;SDS011;36061;48.116;11.612;2023-04-15T12:03:37;4.20;;;2.90;;
50161;SDS011;36061;48.116;11.612;2023-04-15T12:06:09;4.70;;;3.07;;
50161;SDS011;36061;48.116;11.612;2023-04-15T12:08:52;3.90;;;2.70;;
50161;SDS011;36061;48.116;11.612;2023-04-15T12:11:30;5.33;;;2.97;;
50161;SDS011;36061;48.116;11.612;2023-04-15T12:14:02;3.80;;;2.80;;
50161;SDS011;36061;48.116;11.612;2023-04-15T12:16:32;4.47;;;2.70;;
50161;SDS011;36061;48.116;11.612;2023-04-15T12:19:04;3.07;;;2.57;;
50161;SDS011;36061;48.116;11.612;2023-04-15T12:21:35;2.97;;;2.67;;
50161;SDS011;36061;48.116;11.612;2023-04-15T12:24:04;5.23;;;2.73;;
50161;SDS011;36061;48.116;11.612;2023-04-15T12:26:34;4.00;;;2.70;;
50161;SDS011;36061;48.116;11.612;2023-04-15T12:29:03;5.00;;;2.80;;
50161;SDS011;36061;48.116;11.612;2023-04-15T12:31:34;4.20;;;2.77;;
50161;SDS011;36061;48.116;11.612;2023-04-15T12:34:02;4.83;;;2.50;;
50161;SDS011;36061;48.116;11.612;2023-04-15T12:36:33;4.33;;;2.50;;
50161;SDS011;36061;48.116;11.612;2023-04-15T12:39:01;6.80;;;2.57;;
50161;SDS011;36061;48.116;11.612;2023-04-15T12:41:29;3.37;;;2.73;;
50161;SDS011;36061;48.116;11.612;2023-04-15T12:43:57;2.90;;;2.30;;
50161;SDS011;36061;48.116;11.612;2023-04-15T12:46:25;3.37;;;2.27;;
50161;SDS011;36061;48.116;11.612;2023-04-15T12:48:54;3.63;;;2.20;;
50161;SDS011;36061;48.116;11.612;2023-04-15T12:51:21;3.87;;;2.43;;
50161;SDS011;36061;48.116;11.612;2023-04-15T12:53:50;3.10;;;1.90;;
50161;SDS011;36061;48.116;11.612;2023-04-15T12:56:17;4.50;;;2.53;;
50161;SDS011;36061;48.116;11.612;2023-04-15T12:58:44;3.87;;;2.80;;
50161;SDS011;36061;48.116;11.612;2023-04-15T13:01:11;3.13;;;2.20;;
50161;SDS011;36061;48.116;11.612;2023-04-15T13:03:39;3.77;;;2.00;;
50161;SDS011;36061;48.116;11.612;2023-04-15T13:06:07;4.17;;;2.13;;
50161;SDS011;36061;48.116;11.612;2023-04-15T13:08:35;3.80;;;1.90;;
50161;SDS011;36061;48.116;11.612;2023-04-15T13:11:02;3.20;;;1.80;;
50161;SDS011;36061;48.116;11.612;2023-04-15T13:13:30;3.10;;;1.97;;
50161;SDS011;36061;48.116;11.612;2023-04-15T13:15:57;3.27;;;1.83;;
50161;SDS011;36061;48.116;11.612;2023-04-15T13:18:25;2.77;;;1.80;;
50161;SDS011;36061;48.116;11.612;2023-04-15T13:20:52;3.33;;;2.47;;
50161;SDS011;36061;48.116;11.612;2023-04-15T13:23:21;2.20;;;2.00;;
50161;SDS011;36061;48.116;11.612;2023-04-15T13:25:48;3.30;;;2.27;;
50161;SDS011;36061;48.116;11.612;2023-04-15T13:28:16;3.40;;;1.90;;
50161;SDS011;36061;48.116;11.612;2023-04-15T13:30:43;3.23;;;2.23;;
50161;SDS011;36061;48.116;11.612;2023-04-15T13:33:13;3.43;;;2.10;;
50161;SDS011;36061;48.116;11.612;2023-04-15T13:35:40;5.13;;;2.00;;
50161;SDS011;36061;48.116;11.612;2023-04-15T13:38:07;3.87;;;2.40;;
50161;SDS011;36061;48.116;11.612;2023-04-15T13:40:36;3.20;;;2.07;;
50161;SDS011;36061;48.116;11.612;2023-04-15T13:43:03;3.07;;;2.53;;
50161;SDS011;36061;48.116;11.612;2023-04-15T13:45:31;4.00;;;2.30;;
50161;SDS011;36061;48.116;11.612;2023-04-15T13:47:58;4.30;;;2.23;;
50161;SDS011;36061;48.116;11.612;2023-04-15T13:50:26;3.53;;;2.20;;
50161;SDS011;36061;48.116;11.612;2023-04-15T13:52:53;3.70;;;2.20;;
50161;SDS011;36061;48.116;11.612;2023-04-15T13:55:20;4.47;;;2.33;;
50161;SDS011;36061;48.116;11.612;2023-04-15T13:57:49;2.90;;;2.33;;
50161;SDS011;36061;48.116;11.612;2023-04-15T14:00:16;2.37;;;2.10;;
50161;SDS011;36061;48.116;11.612;2023-04-15T14:02:44;6.13;;;2.77;;
50161;SDS011;36061;48.116;11.612;2023-04-15T14:05:11;3.20;;;1.97;;
50161;SDS011;36061;48.116;11.612;2023-04-15T14:07:38;4.83;;;2.70;;
50161;SDS011;36061;48.116;11.612;2023-04-15T14:10:06;3.40;;;2.60;;
50161;SDS011;36061;48.116;11.612;2023-04-15T14:12:34;4.20;;;2.03;;
50161;SDS011;36061;48.116;11.612;2023-04-15T14:15:03;3.27;;;2.17;;
50161;SDS011;36061;48.116;11.612;2023-04-15T14:17:32;4.90;;;1.90;;
50161;SDS011;36061;48.116;11.612;2023-04-15T14:19:59;4.60;;;2.30;;
50161;SDS011;36061;48.116;11.612;2023-04-15T14:22:26;3.17;;;1.90;;
50161;SDS011;36061;48.116;11.612;2023-04-15T14:24:54;2.03;;;1.73;;
50161;SDS011;36061;48.116;11.612;2023-04-15T14:27:21;3.37;;;2.50;;
50161;SDS011;36061;48.116;11.612;2023-04-15T14:29:49;2.20;;;1.77;;
50161;SDS011;36061;48.116;11.612;2023-04-15T14:32:19;1.67;;;1.53;;
50161;SDS011;36061;48.116;11.612;2023-04-15T14:34:46;2.53;;;1.93;;
50161;SDS011;36061;48.116;11.612;2023-04-15T14:37:13;5.40;;;2.93;;
50161;SDS011;36061;48.116;11.612;2023-04-15T14:39:41;2.70;;;1.73;;
50161;SDS011;36061;48.116;11.612;2023-04-15T14:42:08;2.63;;;2.20;;
50161;SDS011;36061;48.116;11.612;2023-04-15T14:44:35;6.03;;;2.60;;
50161;SDS011;36061;48.116;11.612;2023-04-15T14:47:03;4.63;;;2.07;;
50161;SDS011;36061;48.116;11.612;2023-04-15T14:49:31;4.93;;;1.80;;